Lincoln, NE
5/6/2007


DISTANCE 26.2 MILES
FINISHERS 1075 (712 men, 363 women)
AVERAGE TIME 4:09:46

FIND RESULTS


Bib Name Sex Age City State Overall SexPl DivPl Time
8 Chris Kimbrough F 37 Austin TX 10 / 1075 1 / 363 1 / 60 2:44:57
1 Christy Nielsen F 31 Omaha NE 23 / 1075 2 / 363 1 / 58 2:54:21
940 Julie Thornton F 24 Manhattan KS 67 / 1075 3 / 363 1 / 55 3:05:38
2007 Varinka Barbini F 26 Lexington KY 74 / 1075 4 / 363 1 / 67 3:10:50
990 Kjersten Welch F 36 Sioux City IA 84 / 1075 5 / 363 2 / 60 3:12:16
825 Melissa Schmidt F 24 Wahoo NE 115 / 1075 6 / 363 2 / 55 3:18:42
1058 Jennifer Mullen F 38 Kansas City MO 123 / 1075 7 / 363 3 / 60 3:20:37
2053 Michelle Elliott F 36 Whiteman Air Force MO 125 / 1075 8 / 363 4 / 60 3:20:55
1090 Yukiko Nishide F 45 Rye NY 132 / 1075 9 / 363 1 / 38 3:22:10
6 Marla Rhoden F 51 Topeka KS 148 / 1075 10 / 363 1 / 14 3:25:17
396 Beth Henriksen F 51 Ames IA 149 / 1075 11 / 363 2 / 14 3:25:41
574 Jennifer Lueck-Wheeler F 37 Denver CO 158 / 1075 12 / 363 5 / 60 3:27:09
152 Elaine Chavez F 46 Wichita KS 163 / 1075 13 / 363 2 / 38 3:28:12
2110 Nancie Margetis F 42 East Peoria IL 164 / 1075 14 / 363 1 / 48 3:28:12
716 Brenda Peschel F 41 Axtell KS 171 / 1075 15 / 363 2 / 48 3:29:38
619 Kristin McLaughlin F 24 Elmwood NE 174 / 1075 16 / 363 3 / 55 3:30:21
2163 Kristina Smith F 36 Great Falls MT 177 / 1075 17 / 363 6 / 60 3:30:24
2079 Jessie Hoelting F 24 Lincoln NE 180 / 1075 18 / 363 4 / 55 3:30:57
1033 Carol Wright F 47 Wildwood MO 192 / 1075 19 / 363 3 / 38 3:31:55
1059 Janet Park F 43 Bayfield CO 194 / 1075 20 / 363 3 / 48 3:32:14
50 Amanda Baron-Fritts F 45 Lincoln NE 204 / 1075 21 / 363 4 / 38 3:33:30
2167 Martha Swatt-Robison F 44 Sheridan WY 207 / 1075 22 / 363 4 / 48 3:33:38
5559 Patricia Langum F 46 Maple Grove MN 209 / 1075 23 / 363 5 / 38 3:33:51
234 Karen Douglas F 36 Bennington NE 210 / 1075 24 / 363 7 / 60 3:34:12
187 Amy Cornish F 34 Lincoln NE 213 / 1075 25 / 363 2 / 58 3:34:37
56 Annie Baxter F 23 Reno NV 225 / 1075 26 / 363 5 / 55 3:35:42
2010 Tarissa Batenhorst F 25 Lincoln NE 227 / 1075 27 / 363 2 / 67 3:36:03
2096 Jenny Kramer F 27 Lincoln NE 228 / 1075 28 / 363 3 / 67 3:36:04
991 Merrily Welch F 41 Temple ME 232 / 1075 29 / 363 5 / 48 3:36:33
2177 Deanne Trauba F 41 Draper UT 234 / 1075 30 / 363 6 / 48 3:36:42
495 Stella Klassen F 28 Lincoln NE 238 / 1075 31 / 363 4 / 67 3:37:24
846 Suzy Seeley F 48 Houston TX 243 / 1075 32 / 363 6 / 38 3:38:57
866 Megan Slater F 24 Denver CO 244 / 1075 33 / 363 6 / 55 3:39:02
2084 Penny Hytrek F 24 Lincoln NE 249 / 1075 34 / 363 7 / 55 3:39:15
2158 Holly Scott F 46 Dover DE 254 / 1075 35 / 363 7 / 38 3:39:51
1054 Laura Lillie F 26 Omaha NE 258 / 1075 36 / 363 5 / 67 3:40:26
782 Alicia Rini F 27 Ogden KS 259 / 1075 37 / 363 6 / 67 3:40:28
1067 Crystal Prouty F 30 Lincoln NE 260 / 1075 38 / 363 3 / 58 3:40:32
373 Sara Harris F 25 Omaha NE 265 / 1075 39 / 363 7 / 67 3:40:59
71 Lynn Best F 38 Overland Park KS 268 / 1075 40 / 363 8 / 60 3:41:16
784 Mona Robbins F 36 Coralville IA 270 / 1075 41 / 363 9 / 60 3:41:19
2116 Michele McVenes F 32 Inver Grove Height MN 276 / 1075 42 / 363 4 / 58 3:42:02
45 Vicki Bangert F 28 Bellevue NE 280 / 1075 43 / 363 8 / 67 3:42:31
328 Tori Glade F 33 West Des Moines IA 286 / 1075 44 / 363 5 / 58 3:43:03
2056 Stacy Fagan F 25 Wichita KS 295 / 1075 45 / 363 9 / 67 3:43:41
273 Christine Fanslau F 43 Underwood IA 296 / 1075 46 / 363 7 / 48 3:43:47
43 Juli Baldwin Brown F 50 Dallas TX 300 / 1075 47 / 363 3 / 14 3:44:35
771 Michelle Reitz F 34 Omaha NE 315 / 1075 48 / 363 6 / 58 3:46:30
2022 Sarah Bredthauer F 25 Sterling NE 321 / 1075 49 / 363 10 / 67 3:47:16
659 Kathy Murgas F 42 Dallas TX 326 / 1075 50 / 363 8 / 48 3:47:41
520 Bobbie Kriz-Wickham F 35 Lincoln NE 327 / 1075 51 / 363 10 / 60 3:47:44
770 Melita Reineke F 32 Omaha NE 329 / 1075 52 / 363 7 / 58 3:47:54
250 Renee Eardensohn F 43 Omaha NE 330 / 1075 53 / 363 9 / 48 3:47:54
753 Deana Rainey F 34 Omaha NE 334 / 1075 54 / 363 8 / 58 3:48:39
316 Hallie Ganz F 29 Lincoln NE 335 / 1075 55 / 363 11 / 67 3:48:58
15 Toni Aksamit F 46 Lincoln NE 340 / 1075 56 / 363 8 / 38 3:49:25
2125 Renee Mottolo F 30 Phoenix AZ 345 / 1075 57 / 363 9 / 58 3:50:21
888 Rosie Stark F 44 Shenandoah IA 347 / 1075 58 / 363 10 / 48 3:50:31
122 Erin Burianek F 24 Lincoln NE 348 / 1075 59 / 363 8 / 55 3:50:32
114 Karla Bruggeman F 23 Manhattan KS 351 / 1075 60 / 363 9 / 55 3:50:46
197 Kimberly Culpepper F 40 Naples FL 352 / 1075 61 / 363 11 / 48 3:50:48
1038 Tracy Yetter F 36 Omaha NE 353 / 1075 62 / 363 11 / 60 3:50:51
799 Jennifer Royer F 25 Omaha NE 354 / 1075 63 / 363 12 / 67 3:50:57
1494 Patti Minton F 49 Gainesville GA 355 / 1075 64 / 363 9 / 38 3:51:16
417 Leah Holt F 37 Minneapolis MN 356 / 1075 65 / 363 12 / 60 3:51:18
1250 Tish Hamilton F 45 Bernardsville NJ 358 / 1075 66 / 363 10 / 38 3:51:23
2060 Mei Gentry F 38 Mechanicsburg PA 362 / 1075 67 / 363 13 / 60 3:51:59
337 Staci Goslar F 36 Ute IA 374 / 1075 68 / 363 14 / 60 3:53:17
346 Rebecca Grundman F 23 Lincoln NE 384 / 1075 69 / 363 10 / 55 3:54:27
692 Mary O'Brien F 44 Sioux City IA 386 / 1075 70 / 363 12 / 48 3:54:46
252 Laura Edwards F 19 Lawrence KS 392 / 1075 71 / 363 1 / 9 3:55:24
2009 Rosa Bartol F 38 Everett WA 397 / 1075 72 / 363 15 / 60 3:55:42
154 Colleen Chipper F 42 Blackstone VA 398 / 1075 73 / 363 13 / 48 3:55:53
158 Kelly Christensen F 44 Topeka KS 402 / 1075 74 / 363 14 / 48 3:56:10
2142 Sanning Pingitore F 29 Fonda NY 403 / 1075 75 / 363 13 / 67 3:56:14
685 Kathy Norris F 37 Moville IA 405 / 1075 76 / 363 16 / 60 3:56:15
131 Nicole Byrum F 25 Lafayette IN 409 / 1075 77 / 363 14 / 67 3:56:23
133 Kyleen Caley F 22 Los Angeles CA 410 / 1075 78 / 363 11 / 55 3:56:26
777 Whitney Reno F 18 Humeston IA 411 / 1075 79 / 363 2 / 9 3:56:28
1000 Sarah Whipkey F 31 Omaha NE 415 / 1075 80 / 363 10 / 58 3:56:41
586 Jennifer Malmberg F 24 Gering NE 416 / 1075 81 / 363 12 / 55 3:56:42
704 Lindsey Parker F 18 Salina KS 417 / 1075 82 / 363 3 / 9 3:56:49
376 Charlotte Hartwig F 60 Salem OR 419 / 1075 83 / 363 1 / 3 3:56:51
179 Liz Comfort F 42 Lincoln NE 421 / 1075 84 / 363 15 / 48 3:56:54
2030 Julie Caswell F 44 Raymond ME 427 / 1075 85 / 363 16 / 48 3:57:11
839 Shannon Schultz F 23 Omaha NE 428 / 1075 86 / 363 13 / 55 3:57:14
311 Erin Fuhrmeister F 22 Lincoln NE 432 / 1075 87 / 363 14 / 55 3:57:31
301 Sandi Frey F 29 Tilden NE 440 / 1075 88 / 363 15 / 67 3:58:07
603 Kirshell McClannan F 29 Omaha NE 442 / 1075 89 / 363 16 / 67 3:58:19
748 Lexy Quandt F 27 Council Bluffs IA 446 / 1075 90 / 363 17 / 67 3:58:28
134 Lindsey Caley F 25 Omaha NE 449 / 1075 91 / 363 18 / 67 3:59:08
123 Darla Burnham F 43 Grand Island NE 450 / 1075 92 / 363 17 / 48 3:59:11
672 Katherine Nelson F 46 Fort Calhoun NE 459 / 1075 93 / 363 11 / 38 3:59:39
903 Nancy Stoltzfus F 48 Parkesburg PA 460 / 1075 94 / 363 12 / 38 3:59:40
905 Kathryn Stowell F 31 Spokane Valley WA 466 / 1075 95 / 363 11 / 58 3:59:55
752 Sarah Rafi F 27 Chicago IL 469 / 1075 96 / 363 19 / 67 4:00:01
2080 Rebecca Hoffman F 34 Sioux Falls SD 481 / 1075 97 / 363 12 / 58 4:01:15
499 Michelle Kluver F 34 Doniphan NE 483 / 1075 98 / 363 13 / 58 4:01:21
307 Regina Fruge F 27 Omaha NE 485 / 1075 99 / 363 20 / 67 4:01:32
44 Shelly Ballard F 34 Doniphan NE 489 / 1075 100 / 363 14 / 58 4:01:44
509 Laurie Kortum F 45 Dalton GA 493 / 1075 101 / 363 13 / 38 4:02:39
88 Beth Boone F 30 Omaha NE 494 / 1075 102 / 363 15 / 58 4:02:53
1100 Annette Schulte F 22 Lincoln NE 495 / 1075 103 / 363 15 / 55 4:02:54
2159 Sharlene Seefeld F 32 Bismarck ND 499 / 1075 104 / 363 16 / 58 4:03:11
577 Carissa Schultz F 23 Lincoln NE 504 / 1075 105 / 363 16 / 55 4:03:39
926 Denise Teahonpeter F 45 Lincoln NE 507 / 1075 106 / 363 14 / 38 4:04:21
668 Leann Myers F 49 Metairie LA 508 / 1075 107 / 363 15 / 38 4:04:32
700 Tonya Oolman F 33 Paullina IA 513 / 1075 108 / 363 17 / 58 4:04:56
100 Rebecca Brabec F 24 Fremont NE 518 / 1075 109 / 363 17 / 55 4:05:57
2064 Barbara Gossage F 45 Colorado Springs CO 520 / 1075 110 / 363 16 / 38 4:06:01
26 Anita Anderson F 40 Elmwood NE 521 / 1075 111 / 363 18 / 48 4:06:04
848 Jodie Seitzer F 41 Leawood KS 522 / 1075 112 / 363 19 / 48 4:06:07
257 Brenda Eller F 39 David City NE 523 / 1075 113 / 363 17 / 60 4:06:24
121 Kimberly Burhoop F 30 Lincoln NE 526 / 1075 114 / 363 18 / 58 4:06:47
713 Rebecca Pederson F 21 Hillsboro KS 527 / 1075 115 / 363 18 / 55 4:06:48
584 Mariette Magill F 19 Lincoln NE 531 / 1075 116 / 363 4 / 9 4:07:06
1112 Julia Wharton F 36 Merriam KS 532 / 1075 117 / 363 18 / 60 4:07:07
2090 Erin Kearney F 27 Olathe KS 533 / 1075 118 / 363 21 / 67 4:07:24
1491 Wendy Clements F 41 Gainesville GA 542 / 1075 119 / 363 20 / 48 4:08:07
998 Hilary Westenburg F 33 Lincoln NE 547 / 1075 120 / 363 19 / 58 4:08:28
2114 Rose Mattie F 24 Germantown MD 549 / 1075 121 / 363 19 / 55 4:08:52
976 Britton Walker F 22 Lisbon IA 552 / 1075 122 / 363 20 / 55 4:09:02
681 Libby Nifelhelm F 28 Lincoln NE 557 / 1075 123 / 363 22 / 67 4:09:17
786 Christina Roberts F 20 Topeka KS 563 / 1075 124 / 363 21 / 55 4:09:42
789 Elise Rock F 19 Lawrence KS 567 / 1075 125 / 363 5 / 9 4:10:08
400 Jan Heywood F 43 Lincoln NE 568 / 1075 126 / 363 21 / 48 4:10:09
413 Karen Hollis F 24 Lincoln NE 572 / 1075 127 / 363 22 / 55 4:10:35
674 Carrie Nepple F 29 Council Bluffs IA 574 / 1075 128 / 363 23 / 67 4:10:44
2131 Valerie Nolan F 25 Lincoln NE 575 / 1075 129 / 363 24 / 67 4:10:48
589 Desirae Mares F 27 Dewitt NE 577 / 1075 130 / 363 25 / 67 4:11:07
624 Lindsey McPherson F 23 Omaha NE 581 / 1075 131 / 363 23 / 55 4:11:26
55 Ann Bauermeister F 34 Lincoln NE 582 / 1075 132 / 363 20 / 58 4:11:37
384 Anne Heimann F 30 Gaithersburg MD 584 / 1075 133 / 363 21 / 58 4:12:14
557 Rhonda Lieske F 40 Lincoln NE 585 / 1075 134 / 363 22 / 48 4:12:24
296 Christa Fredericksen F 26 Lincoln NE 586 / 1075 135 / 363 26 / 67 4:12:26
2207 Melissa Knight F 19 Sioux City IA 587 / 1075 136 / 363 6 / 9 4:12:26
2058 Pamela Frost F 48 Clancy MT 588 / 1075 137 / 363 17 / 38 4:12:38
299 Dalila Frei F 50 Doylestown PA 591 / 1075 138 / 363 4 / 14 4:12:41
539 Lisa Laville F 45 Carmichael CA 598 / 1075 139 / 363 18 / 38 4:13:40
686 Jessica Norton F 28 Lincoln NE 600 / 1075 140 / 363 27 / 67 4:13:54
383 Leah Heidemann F 31 West Des Moines IA 601 / 1075 141 / 363 22 / 58 4:13:57
288 Nancy Foster F 32 Kearney NE 604 / 1075 142 / 363 23 / 58 4:14:05
368 Tami Harmon F 38 Yuma AZ 606 / 1075 143 / 363 19 / 60 4:14:27
793 Tina Rohrs F 34 Lincoln NE 609 / 1075 144 / 363 24 / 58 4:14:34
965 Shyamali Vithanage F 36 Council Bluffs IA 610 / 1075 145 / 363 20 / 60 4:14:38
1007 Jolynne Wightman F 39 Hollis NH 612 / 1075 146 / 363 21 / 60 4:14:42
463 Kari Johnson F 34 Gretna NE 616 / 1075 147 / 363 25 / 58 4:15:00
120 Jennifer Budler F 38 Lincoln NE 617 / 1075 148 / 363 22 / 60 4:15:19
399 Anne Hessler F 28 Hastings NE 618 / 1075 149 / 363 28 / 67 4:15:25
374 Sarah Harris F 33 Baldwin City KS 619 / 1075 150 / 363 26 / 58 4:15:29
735 Kelly Porupsky F 24 Fremont NE 623 / 1075 151 / 363 24 / 55 4:15:38
2122 Holly Moody F 22 St.George UT 624 / 1075 152 / 363 25 / 55 4:15:40
583 Evelyn Maeder F 24 Lincoln NE 625 / 1075 153 / 363 26 / 55 4:15:44
209 Alison Dempsey F 28 Omaha NE 627 / 1075 154 / 363 29 / 67 4:15:50
1004 Julie Whitwer F 24 Lincoln NE 633 / 1075 155 / 363 27 / 55 4:16:16
1060 Cara Pesek F 27 Lincoln NE 636 / 1075 156 / 363 30 / 67 4:16:24
885 Leslie Stanfield F 57 Reston VA 637 / 1075 157 / 363 1 / 10 4:16:24
556 Therese Liegl F 49 Lincoln NE 641 / 1075 158 / 363 19 / 38 4:16:38
2155 Casey Schmitt F 23 Plymouth MN 644 / 1075 159 / 363 28 / 55 4:16:50
1064 Nancy Vankirk F 55 Lincoln NE 646 / 1075 160 / 363 2 / 10 4:16:56
147 Suzanne Carson F 52 St Louis Park MN 650 / 1075 161 / 363 5 / 14 4:17:05
2083 Devika Hull-Jenkins F 43 Stone Mountain GA 653 / 1075 162 / 363 23 / 48 4:17:10
420 Patty Hood F 38 Lennox SD 654 / 1075 163 / 363 23 / 60 4:17:12
751 Tenille Rader F 26 Kearney NE 656 / 1075 164 / 363 31 / 67 4:17:20
726 Kara Pietila F 18 Leavenworth KS 658 / 1075 165 / 363 7 / 9 4:17:21
247 Shannon Dunn F 30 Lincoln NE 661 / 1075 166 / 363 27 / 58 4:17:38
165 Shauna Clausen F 26 Omaha NE 662 / 1075 167 / 363 32 / 67 4:17:38
60 Kimberly Behrens F 38 Davenport IA 665 / 1075 168 / 363 24 / 60 4:17:51
947 Jamin Trautman F 27 Kearney NE 668 / 1075 169 / 363 33 / 67 4:18:13
232 Carla Dorpinghaus F 37 Omaha NE 669 / 1075 170 / 363 25 / 60 4:18:14
754 Kathie Ramsey F 46 Bellevue NE 671 / 1075 171 / 363 20 / 38 4:18:26
878 Danielle Sommer F 24 Omaha NE 672 / 1075 172 / 363 29 / 55 4:18:44
780 Karen Richards F 50 Omaha NE 675 / 1075 173 / 363 6 / 14 4:19:22
198 Karen Cummins F 58 Madison SD 677 / 1075 174 / 363 3 / 10 4:19:31
749 Kelly Quinlin F 29 Maryville MO 682 / 1075 175 / 363 34 / 67 4:20:12
227 Anne Domonoske F 25 Topeka KS 683 / 1075 176 / 363 35 / 67 4:20:36
358 Tammy Hanel F 34 Lincoln NE 684 / 1075 177 / 363 28 / 58 4:20:39
150 Jennifer Chapman F 38 Lincoln NE 689 / 1075 178 / 363 26 / 60 4:21:42
263 Kara Engles F 31 Auburn NE 690 / 1075 179 / 363 29 / 58 4:21:53
6620 Majbritt Young F 24 Bellevue NE 691 / 1075 180 / 363 30 / 55 4:22:02
522 Tammie Kruszczak F 39 Omaha NE 694 / 1075 181 / 363 27 / 60 4:22:09
860 Jolene Silovsky F 23 Topeka KS 699 / 1075 182 / 363 31 / 55 4:22:46
607 Heather McCulley F 31 Omaha NE 701 / 1075 183 / 363 30 / 58 4:23:04
950 Carol Trees F 39 Leawood KS 704 / 1075 184 / 363 28 / 60 4:23:13
862 Cheryl Simecka F 22 Topeka KS 706 / 1075 185 / 363 32 / 55 4:23:20
389 Alica Helmink F 56 Lincoln NE 707 / 1075 186 / 363 4 / 10 4:23:34
186 Ashley Corkins F 24 Columbus NE 708 / 1075 187 / 363 33 / 55 4:23:40
705 Nicole Parkhurst F 27 Lees Summit MO 709 / 1075 188 / 363 36 / 67 4:23:44
831 Samantha Ann Schrader F 20 Lincoln NE 713 / 1075 189 / 363 34 / 55 4:24:09
381 Lenamarie Heath F 23 Fremont NE 714 / 1075 190 / 363 35 / 55 4:24:13
579 Lori Mach F 24 Lincoln NE 717 / 1075 191 / 363 36 / 55 4:24:23
2051 Artavia Edwards F 45 Sacramento CA 718 / 1075 192 / 363 21 / 38 4:24:24
2115 Rachelle McKay F 34 Taylorville IL 719 / 1075 193 / 363 31 / 58 4:24:30
691 Sarah Obrien F 32 Des Moines IA 721 / 1075 194 / 363 32 / 58 4:24:43
456 Amy Jennings F 30 Overland Park KS 722 / 1075 195 / 363 33 / 58 4:24:46
745 Ann Puetz F 37 Chicago IL 723 / 1075 196 / 363 29 / 60 4:24:58
854 Lisa Sexton F 41 Casper WY 724 / 1075 197 / 363 24 / 48 4:25:26
2028 Kristine Cambre F 37 New Orleans LA 726 / 1075 198 / 363 30 / 60 4:25:31
291 Kandi Franklin F 40 Brule NE 729 / 1075 199 / 363 25 / 48 4:25:58
900 Krista Stigall F 37 Olathe KS 730 / 1075 200 / 363 31 / 60 4:26:10
843 Adrienne Schwisow F 30 Chicago IL 731 / 1075 201 / 363 34 / 58 4:26:22
763 Sarah Reed F 27 Bentonville AR 736 / 1075 202 / 363 37 / 67 4:26:57
1066 Stephanie Wheelock F 24 Bentonville AR 737 / 1075 203 / 363 37 / 55 4:26:58
562 Gina Lindsay F 38 Norfolk NE 742 / 1075 204 / 363 32 / 60 4:27:16
889 Linda Staska F 43 Auburn NE 747 / 1075 205 / 363 26 / 48 4:27:33
107 Melissa Briggs F 39 Aurora MO 750 / 1075 206 / 363 33 / 60 4:27:47
2094 Veronica Kool F 21 Chicago IL 751 / 1075 207 / 363 38 / 55 4:27:51
251 Cathy Ebers F 43 Lincoln NE 752 / 1075 208 / 363 27 / 48 4:27:57
41 Melanie Bakke F 33 Omaha NE 753 / 1075 209 / 363 35 / 58 4:28:01
964 Nicole Vidlak F 37 Scottsbluff NE 754 / 1075 210 / 363 34 / 60 4:28:05
792 Stephanie Rogers F 23 Papillion NE 755 / 1075 211 / 363 39 / 55 4:28:21
553 Rachel Lewis F 20 Lincoln NE 756 / 1075 212 / 363 40 / 55 4:28:26
695 Valerie Oertli F 54 Lincoln NE 757 / 1075 213 / 363 7 / 14 4:28:26
410 Ellen Hollcroft F 31 Lincoln NE 759 / 1075 214 / 363 36 / 58 4:28:33
261 Jamie Ellis F 24 Holcomb KS 760 / 1075 215 / 363 41 / 55 4:28:34
956 Jennifer Vacanti F 34 Council Bluffs IA 764 / 1075 216 / 363 37 / 58 4:28:44
324 Kristen Gibbs F 26 Malvern IA 765 / 1075 217 / 363 38 / 67 4:28:45
1283 Patty Jansen F 41 Mason IL 768 / 1075 218 / 363 28 / 48 4:29:04
2132 Gena Norton F 35 Lincoln NE 769 / 1075 219 / 363 35 / 60 4:29:05
69 Patricia Bernadac F 34 Scottsbluff NE 771 / 1075 220 / 363 38 / 58 4:29:25
959 Kathy Vandergriend F 37 Elkhorn NE 772 / 1075 221 / 363 36 / 60 4:29:37
618 Erin McKown F 30 Albion NE 773 / 1075 222 / 363 39 / 58 4:29:41
407 Teresa Hofer F 42 Seward NE 775 / 1075 223 / 363 29 / 48 4:30:13
184 Ethel Cook F 42 Chester Springs PA 778 / 1075 224 / 363 30 / 48 4:31:02
359 Ashley Hansen F 20 Topeka KS 780 / 1075 225 / 363 42 / 55 4:31:06
916 Marlene Swanson F 52 Lincoln NE 782 / 1075 226 / 363 8 / 14 4:31:26
2171 Jennifer Telecky F 23 Lincoln NE 783 / 1075 227 / 363 43 / 55 4:31:32
938 Joy Thompson F 47 Alliance NE 789 / 1075 228 / 363 22 / 38 4:32:06
2006 Lori Baldwin F 44 Milwaukie OR 790 / 1075 229 / 363 31 / 48 4:32:08
963 Jenn Vedder F 34 Junction City KS 791 / 1075 230 / 363 40 / 58 4:32:10
741 Sheila Prevou F 44 Leavenworth KS 792 / 1075 231 / 363 32 / 48 4:32:10
626 Susie Meara F 42 Lansing KS 793 / 1075 232 / 363 33 / 48 4:32:11
654 Francy Mueller F 32 Leavenworth KS 794 / 1075 233 / 363 41 / 58 4:32:11
720 Ashley Peterson F 21 Fremont NE 795 / 1075 234 / 363 44 / 55 4:32:21
564 Kathryn Link F 52 Omaha NE 796 / 1075 235 / 363 9 / 14 4:32:45
690 Cindy Obenchain F 48 Lincoln NE 800 / 1075 236 / 363 23 / 38 4:33:07
502 Amy Knowlton F 28 Omaha NE 801 / 1075 237 / 363 39 / 67 4:33:13
1050 Kendra Bealmear F 49 Kansas City MO 802 / 1075 238 / 363 24 / 38 4:33:15
1049 Jodi Alper F 52 Basking Ridge NJ 804 / 1075 239 / 363 10 / 14 4:33:59
168 Tina Cleary F 31 Big Lake MN 805 / 1075 240 / 363 42 / 58 4:34:02
366 Lynette Harlow F 30 Lenexa KS 806 / 1075 241 / 363 43 / 58 4:34:18
270 Anna Fahey F 22 Topeka KS 809 / 1075 242 / 363 45 / 55 4:34:30
430 Kendra Hubbard F 36 Lincoln NE 811 / 1075 243 / 363 37 / 60 4:34:31
393 Lori Henning F 42 Lincoln NE 812 / 1075 244 / 363 34 / 48 4:34:40
904 Nami Stone F 31 Lawrence KS 814 / 1075 245 / 363 44 / 58 4:34:42
210 Marissa Dent F 37 Lawrence KS 815 / 1075 246 / 363 38 / 60 4:34:42
935 Denise Thomas F 49 Lititz PA 816 / 1075 247 / 363 25 / 38 4:35:03
1117 Marika German F 26 Lincoln NE 817 / 1075 248 / 363 40 / 67 4:35:19
955 Julie Utter F 35 Warrenville IL 822 / 1075 249 / 363 39 / 60 4:35:27
725 Kendra Piening F 24 Lincoln NE 823 / 1075 250 / 363 46 / 55 4:35:28
678 Kristi Niederklein F 25 Lincoln NE 824 / 1075 251 / 363 41 / 67 4:35:28
205 Amanda Davis F 21 Omaha NE 826 / 1075 252 / 363 47 / 55 4:35:35
447 Anne Jacobs F 41 Evanston IL 827 / 1075 253 / 363 35 / 48 4:35:50
645 Katie Monaghan F 23 Cedar Bluffs NE 832 / 1075 254 / 363 48 / 55 4:36:37
504 Janine Knutson F 41 Montrose MN 835 / 1075 255 / 363 36 / 48 4:36:58
2027 Margaret Bullington F 34 Topeka KS 837 / 1075 256 / 363 45 / 58 4:37:03
714 Beth Peitzmeier F 26 Omaha NE 840 / 1075 257 / 363 42 / 67 4:37:11
892 Heather Steffen F 25 Omaha NE 841 / 1075 258 / 363 43 / 67 4:37:12
939 Mk Thompson F 43 Topeka KS 842 / 1075 259 / 363 37 / 48 4:37:12
434 Michelle Hughes F 33 Kansas City MO 844 / 1075 260 / 363 46 / 58 4:37:19
442 Angela Ivory F 39 Nashville TN 846 / 1075 261 / 363 40 / 60 4:37:47
444 Angela Jackson F 27 Omaha NE 847 / 1075 262 / 363 44 / 67 4:37:56
411 Susan Hollins F 52 Omaha NE 848 / 1075 263 / 363 11 / 14 4:38:07
136 Tracy Callahan F 27 Palmyra NE 849 / 1075 264 / 363 45 / 67 4:38:13
193 Liz Craig F 27 Omaha NE 856 / 1075 265 / 363 46 / 67 4:39:26
482 Colleen Kelly F 46 Scottsbluff NE 858 / 1075 266 / 363 26 / 38 4:39:55
901 Nikki Stob F 24 Denver CO 859 / 1075 267 / 363 49 / 55 4:40:29
294 Kendra Fraser F 35 Omaha NE 863 / 1075 268 / 363 41 / 60 4:40:44
791 Martha Roe F 45 McCook NE 865 / 1075 269 / 363 27 / 38 4:41:04
440 Jill Ivers F 27 The Woodlands TX 869 / 1075 270 / 363 47 / 67 4:41:20
141 Marianne Cantieri F 39 Mount Prospect IL 874 / 1075 271 / 363 42 / 60 4:42:03
2191 Rebecca Wiese F 25 Middleburg FL 875 / 1075 272 / 363 48 / 67 4:42:11
1012 Lesa Wilhelm F 34 Cheyenne WY 876 / 1075 273 / 363 47 / 58 4:42:25
513 Meredith Koubsky F 34 Council Bluffs IA 877 / 1075 274 / 363 48 / 58 4:42:30
1002 Leslie Whisenhunt F 33 Lincoln NE 884 / 1075 275 / 363 49 / 58 4:43:51
1019 Catherine Wilson F 39 Hastings NE 887 / 1075 276 / 363 43 / 60 4:44:52
728 Laura Pinto F 44 Omaha NE 890 / 1075 277 / 363 38 / 48 4:45:33
835 Ilana Schroeder F 30 Lincoln NE 895 / 1075 278 / 363 50 / 58 4:47:01
658 Mary Munter F 59 Lincoln NE 898 / 1075 279 / 363 5 / 10 4:48:10
623 Kate McNutt F 32 Silver City IA 899 / 1075 280 / 363 51 / 58 4:48:10
893 Paula Stegeman F 49 Platte City MO 902 / 1075 281 / 363 28 / 38 4:48:29
329 Marcia Godwin F 58 Rowlett TX 903 / 1075 282 / 363 6 / 10 4:48:34
1040 Karon Ann Young F 59 Denver CO 904 / 1075 283 / 363 7 / 10 4:48:39
489 Jackie King F 42 Urbandale IA 905 / 1075 284 / 363 39 / 48 4:48:41
47 Kathleen Barker F 43 Lawrenceville GA 908 / 1075 285 / 363 40 / 48 4:48:57
870 Catherine Smith F 36 Bellevue NE 911 / 1075 286 / 363 44 / 60 4:49:09
785 Marcia Roberson F 32 Overland Park KS 915 / 1075 287 / 363 52 / 58 4:50:08
128 Nan Butler F 43 Littleton CO 916 / 1075 288 / 363 41 / 48 4:50:13
1041 Molly Zalewski F 28 Chicago IL 917 / 1075 289 / 363 49 / 67 4:50:27
592 Patricia Martinez F 27 Lincoln NE 919 / 1075 290 / 363 50 / 67 4:51:23
980 Amy Warner F 30 Saint Louis MO 921 / 1075 291 / 363 53 / 58 4:51:27
1034 Lea Wroblewski F 36 Lincoln NE 925 / 1075 292 / 363 45 / 60 4:52:29
149 Laura Ceraolo F 37 Lincoln NE 926 / 1075 293 / 363 46 / 60 4:52:31
194 Lorene Cramer F 48 Kearney NE 927 / 1075 294 / 363 29 / 38 4:52:33
759 Ann Rayer F 29 Omaha NE 929 / 1075 295 / 363 51 / 67 4:53:33
483 Julia Kennedy F 47 Lincoln NE 931 / 1075 296 / 363 30 / 38 4:54:25
646 Paige Mongeon F 35 Lincoln NE 932 / 1075 297 / 363 47 / 60 4:54:34
516 Diana Krause F 46 Lincoln NE 933 / 1075 298 / 363 31 / 38 4:54:50
237 Jackie Doyel F 38 Shawnee KS 942 / 1075 299 / 363 48 / 60 4:56:45
652 Roxanne Moss F 26 Valdese NC 945 / 1075 300 / 363 52 / 67 4:57:22
973 Jennifer Voysey F 36 Prairie Village KS 946 / 1075 301 / 363 49 / 60 4:57:27
1078 Kathy Fuehrer F 41 Kearney NE 947 / 1075 302 / 363 42 / 48 4:57:37
1104 Christine Steinhauser F 43 Kearney NE 948 / 1075 303 / 363 43 / 48 4:57:38
240 Deanna Dredge F 48 Omaha NE 951 / 1075 304 / 363 32 / 38 4:58:09
2129 Janet Nitschke F 28 Fargo ND 952 / 1075 305 / 363 53 / 67 4:58:09
740 Nancy Pratt F 48 Defiance MO 955 / 1075 306 / 363 33 / 38 4:59:34
635 Lisa Michaelsen F 32 Cedar Falls IA 957 / 1075 307 / 363 54 / 58 5:00:16
542 Monica Lee-Buss F 26 Columbus NE 958 / 1075 308 / 363 54 / 67 5:00:59
2069 Rebecca Harris F 26 Shawnee KS 960 / 1075 309 / 363 55 / 67 5:01:19
39 Shade' Ayorinde F 22 Lincoln NE 961 / 1075 310 / 363 50 / 55 5:01:26
798 Kate Rowden F 19 Lawrence KS 963 / 1075 311 / 363 8 / 9 5:02:57
644 Jenny Mollner F 27 Omaha NE 966 / 1075 312 / 363 56 / 67 5:04:31
352 Shari Gundersen F 26 Omaha NE 967 / 1075 313 / 363 57 / 67 5:04:31
867 Heidi Slaymaker F 25 Lincoln NE 970 / 1075 314 / 363 58 / 67 5:06:00
92 Jessica Bossert F 25 Kansas City MO 973 / 1075 315 / 363 59 / 67 5:07:21
588 Leah Manz F 21 Hastings NE 974 / 1075 316 / 363 51 / 55 5:07:37
795 Alissa Ross F 27 Topeka KS 975 / 1075 317 / 363 60 / 67 5:07:56
969 Raina Volkmer F 36 Lawrence KS 976 / 1075 318 / 363 50 / 60 5:09:01
621 Geri McMahon F 39 Clive IA 981 / 1075 319 / 363 51 / 60 5:09:55
2050 Sara Dvorak F 25 Vermillion SD 982 / 1075 320 / 363 61 / 67 5:09:57
828 Karina Schoengold F 32 Lincoln NE 988 / 1075 321 / 363 55 / 58 5:11:56
820 Marge Schepker F 56 Topeka KS 989 / 1075 322 / 363 8 / 10 5:12:47
902 Martha Stoddard F 49 Lincoln NE 990 / 1075 323 / 363 34 / 38 5:13:04
350 Bettina Gugat-Casares F 38 Sioux City IA 992 / 1075 324 / 363 52 / 60 5:15:01
406 Andrea Hoekstra F 35 Des Moines IA 995 / 1075 325 / 363 53 / 60 5:18:00
978 Debbie Wanserski F 50 St. Joseph MO 996 / 1075 326 / 363 12 / 14 5:18:02
191 Jody Craig F 29 Overland Park KS 1002 / 1075 327 / 363 62 / 67 5:19:54
2002 Robin Anderson F 42 Temple TX 1003 / 1075 328 / 363 44 / 48 5:20:42
953 Alison Uhl F 23 Iowa City IA 1005 / 1075 329 / 363 52 / 55 5:21:10
2212 Latonya Robinson F 36 Bolingbrook IL 1006 / 1075 330 / 363 54 / 60 5:21:25
256 Lora Eklund F 49 Phoenix AZ 1007 / 1075 331 / 363 35 / 38 5:21:42
534 Sandra Larsen F 40 Douglas NE 1008 / 1075 332 / 363 45 / 48 5:21:46
219 Terri Dier F 45 Lincoln NE 1010 / 1075 333 / 363 36 / 38 5:21:56
58 April Beckenhauer F 28 Miami FL 1013 / 1075 334 / 363 63 / 67 5:21:59
25 Amy Anderson F 35 Plattsmouth NE 1014 / 1075 335 / 363 55 / 60 5:21:59
779 Lydia Rhodes F 31 Bellevue NE 1015 / 1075 336 / 363 56 / 58 5:22:05
305 Kathleen Fritz F 35 Streamwood IL 1021 / 1075 337 / 363 56 / 60 5:24:12
431 Carolyn Huber F 41 Elgin IL 1022 / 1075 338 / 363 46 / 48 5:24:12
348 Karissa Gugat F 17 Sioux City IA 1023 / 1075 339 / 363 9 / 9 5:24:22
567 Jill Livingston F 24 Lincoln NE 1024 / 1075 340 / 363 53 / 55 5:24:32
814 Lynn Sandbeck F 53 Kansas City MO 1027 / 1075 341 / 363 13 / 14 5:26:26
345 Ashlee Grover F 24 Topeka KS 1029 / 1075 342 / 363 54 / 55 5:28:12
817 Karen Schapira F 54 Anthem AZ 1030 / 1075 343 / 363 14 / 14 5:28:52
395 Stacy Henning F 23 Baltimore MD 1031 / 1075 344 / 363 55 / 55 5:30:49
394 Nicole Henning F 29 Baltimore MD 1032 / 1075 345 / 363 64 / 67 5:30:50
335 Catherine Gomez F 38 Topeka KS 1034 / 1075 346 / 363 57 / 60 5:35:17
201 Rebecca Czaja-Stevens F 28 Lincoln NE 1036 / 1075 347 / 363 65 / 67 5:36:15
1108 Kim Thompson F 47 Raymond NE 1038 / 1075 348 / 363 37 / 38 5:36:16
804 Margaret Rutherford F 49 Columbia MO 1039 / 1075 349 / 363 38 / 38 5:36:19
132 Laura Cain F 42 Telluride CO 1042 / 1075 350 / 363 47 / 48 5:39:39
946 Willie Toth F 66 Mission Viejo CA 1043 / 1075 351 / 363 1 / 1 5:41:11
922 Anne Talbot F 56 Scottsbluff NE 1044 / 1075 352 / 363 9 / 10 5:41:49
144 Jessica Carlson F 27 San Antonio TX 1048 / 1075 353 / 363 66 / 67 5:46:17
717 Amy Peters F 33 Sioux City IA 1051 / 1075 354 / 363 57 / 58 5:47:53
2128 Ann Mutzenberger F 38 Minot ND 1052 / 1075 355 / 363 58 / 60 5:48:22
1118 Deanna Leyden F 35 Lincoln NE 1053 / 1075 356 / 363 59 / 60 5:53:19
68 Jodi Bergstrom F 31 Lincoln NE 1058 / 1075 357 / 363 58 / 58 5:56:34
1006 Sylvia Wiegand F 62 Lincoln NE 1064 / 1075 358 / 363 2 / 3 6:01:07
981 Frances Wasicka F 43 Chicago IL 1067 / 1075 359 / 363 48 / 48 6:03:25
494 Ingrid Kiss F 64 Morganville NJ 1068 / 1075 360 / 363 3 / 3 6:04:51
436 Julie Hurley F 28 Overland Park KS 1070 / 1075 361 / 363 67 / 67 6:08:07
333 Alisa Golay F 39 Indianola IA 1073 / 1075 362 / 363 60 / 60 6:19:09
30 Susan Scott F 59 Lincoln NE 1075 / 1075 363 / 363 10 / 10 7:22:02
1-363
Per Page: [50] [100] [500]